sensor_id;sensor_type;location;lat;lon;timestamp;temperature;humidity
21489;DHT22;10906;45.194;5.684;2022-07-23T05:00:34;25.90;68.10
21489;DHT22;10906;45.194;5.684;2022-07-23T05:03:19;25.90;68.20
21489;DHT22;10906;45.194;5.684;2022-07-23T05:06:04;25.80;68.20
21489;DHT22;10906;45.194;5.684;2022-07-23T05:08:48;25.80;68.70
21489;DHT22;10906;45.194;5.684;2022-07-23T05:11:32;25.70;70.20
21489;DHT22;10906;45.194;5.684;2022-07-23T05:14:17;25.70;71.10
21489;DHT22;10906;45.194;5.684;2022-07-23T05:17:02;25.50;72.30
21489;DHT22;10906;45.194;5.684;2022-07-23T05:19:46;25.40;73.40
21489;DHT22;10906;45.194;5.684;2022-07-23T05:22:31;25.30;73.70
21489;DHT22;10906;45.194;5.684;2022-07-23T05:25:15;25.00;74.60
21489;DHT22;10906;45.194;5.684;2022-07-23T05:28:00;24.80;75.60
21489;DHT22;10906;45.194;5.684;2022-07-23T05:30:44;24.60;76.90
21489;DHT22;10906;45.194;5.684;2022-07-23T05:33:29;24.30;77.90
21489;DHT22;10906;45.194;5.684;2022-07-23T05:36:14;24.20;79.60
21489;DHT22;10906;45.194;5.684;2022-07-23T05:38:58;24.20;80.70
21489;DHT22;10906;45.194;5.684;2022-07-23T05:41:43;24.10;81.30
21489;DHT22;10906;45.194;5.684;2022-07-23T05:44:27;23.90;82.40
21489;DHT22;10906;45.194;5.684;2022-07-23T05:47:11;23.90;83.20
21489;DHT22;10906;45.194;5.684;2022-07-23T05:49:56;23.90;83.70
21489;DHT22;10906;45.194;5.684;2022-07-23T05:52:41;23.80;84.30
21489;DHT22;10906;45.194;5.684;2022-07-23T05:55:25;23.60;86.60
21489;DHT22;10906;45.194;5.684;2022-07-23T05:58:12;23.60;87.30
21489;DHT22;10906;45.194;5.684;2022-07-23T06:00:57;23.50;88.30
21489;DHT22;10906;45.194;5.684;2022-07-23T06:03:42;23.60;89.30
21489;DHT22;10906;45.194;5.684;2022-07-23T06:06:26;23.70;89.90
21489;DHT22;10906;45.194;5.684;2022-07-23T06:09:10;23.70;90.20
21489;DHT22;10906;45.194;5.684;2022-07-23T06:11:57;23.60;90.30
21489;DHT22;10906;45.194;5.684;2022-07-23T06:14:42;23.50;90.50
21489;DHT22;10906;45.194;5.684;2022-07-23T06:17:26;23.40;90.30
21489;DHT22;10906;45.194;5.684;2022-07-23T06:20:11;23.40;90.50
21489;DHT22;10906;45.194;5.684;2022-07-23T06:22:55;23.40;90.60
21489;DHT22;10906;45.194;5.684;2022-07-23T06:25:39;23.30;90.70
21489;DHT22;10906;45.194;5.684;2022-07-23T06:28:23;23.40;91.20
21489;DHT22;10906;45.194;5.684;2022-07-23T06:31:07;23.40;91.30
21489;DHT22;10906;45.194;5.684;2022-07-23T06:33:52;23.40;91.30
21489;DHT22;10906;45.194;5.684;2022-07-23T06:36:36;23.50;91.60
21489;DHT22;10906;45.194;5.684;2022-07-23T06:39:20;23.50;91.60
21489;DHT22;10906;45.194;5.684;2022-07-23T06:42:05;23.40;91.90
21489;DHT22;10906;45.194;5.684;2022-07-23T06:44:49;23.40;92.10
21489;DHT22;10906;45.194;5.684;2022-07-23T06:47:34;23.50;92.40
21489;DHT22;10906;45.194;5.684;2022-07-23T06:50:18;23.60;92.60
21489;DHT22;10906;45.194;5.684;2022-07-23T06:53:02;23.70;93.00
21489;DHT22;10906;45.194;5.684;2022-07-23T06:55:47;23.90;93.00
21489;DHT22;10906;45.194;5.684;2022-07-23T06:58:31;24.00;93.10
21489;DHT22;10906;45.194;5.684;2022-07-23T07:01:15;24.20;93.20
21489;DHT22;10906;45.194;5.684;2022-07-23T07:04:00;24.20;93.10
21489;DHT22;10906;45.194;5.684;2022-07-23T07:06:44;24.30;93.00
21489;DHT22;10906;45.194;5.684;2022-07-23T07:09:29;24.50;92.90
21489;DHT22;10906;45.194;5.684;2022-07-23T07:12:13;24.50;93.00
21489;DHT22;10906;45.194;5.684;2022-07-23T07:14:57;24.70;93.00
21489;DHT22;10906;45.194;5.684;2022-07-23T07:17:42;24.80;92.90
21489;DHT22;10906;45.194;5.684;2022-07-23T07:20:26;24.90;92.60
21489;DHT22;10906;45.194;5.684;2022-07-23T07:23:12;25.10;92.70
21489;DHT22;10906;45.194;5.684;2022-07-23T07:25:56;25.20;92.40
21489;DHT22;10906;45.194;5.684;2022-07-23T07:28:40;25.40;92.00
21489;DHT22;10906;45.194;5.684;2022-07-23T07:31:24;25.50;91.70
21489;DHT22;10906;45.194;5.684;2022-07-23T07:34:09;25.60;91.20
21489;DHT22;10906;45.194;5.684;2022-07-23T07:36:53;25.70;91.00
21489;DHT22;10906;45.194;5.684;2022-07-23T07:39:38;25.70;90.80
21489;DHT22;10906;45.194;5.684;2022-07-23T07:42:22;25.90;90.70
21489;DHT22;10906;45.194;5.684;2022-07-23T07:45:07;26.00;90.50
21489;DHT22;10906;45.194;5.684;2022-07-23T07:47:52;26.00;90.10
21489;DHT22;10906;45.194;5.684;2022-07-23T07:50:39;26.10;89.50
21489;DHT22;10906;45.194;5.684;2022-07-23T07:53:24;26.20;88.80
21489;DHT22;10906;45.194;5.684;2022-07-23T07:56:08;26.40;89.40
21489;DHT22;10906;45.194;5.684;2022-07-23T07:58:53;26.40;88.00
21489;DHT22;10906;45.194;5.684;2022-07-23T08:01:37;26.40;87.30
21489;DHT22;10906;45.194;5.684;2022-07-23T08:04:22;26.40;86.90
21489;DHT22;10906;45.194;5.684;2022-07-23T08:07:06;26.50;87.00
21489;DHT22;10906;45.194;5.684;2022-07-23T08:09:50;26.70;87.10
21489;DHT22;10906;45.194;5.684;2022-07-23T08:12:43;26.70;85.70
21489;DHT22;10906;45.194;5.684;2022-07-23T08:15:30;26.80;85.50
21489;DHT22;10906;45.194;5.684;2022-07-23T08:18:15;26.90;85.00
21489;DHT22;10906;45.194;5.684;2022-07-23T08:21:00;26.90;84.40
21489;DHT22;10906;45.194;5.684;2022-07-23T08:23:44;27.00;84.70
21489;DHT22;10906;45.194;5.684;2022-07-23T08:26:28;27.20;83.80
21489;DHT22;10906;45.194;5.684;2022-07-23T08:29:13;27.40;83.20
21489;DHT22;10906;45.194;5.684;2022-07-23T08:31:57;27.40;82.20
21489;DHT22;10906;45.194;5.684;2022-07-23T08:34:41;27.50;81.40
21489;DHT22;10906;45.194;5.684;2022-07-23T08:37:25;27.50;81.20
21489;DHT22;10906;45.194;5.684;2022-07-23T08:40:10;27.60;80.90
21489;DHT22;10906;45.194;5.684;2022-07-23T08:42:55;27.70;80.40
21489;DHT22;10906;45.194;5.684;2022-07-23T08:45:44;27.80;79.70
21489;DHT22;10906;45.194;5.684;2022-07-23T08:48:33;27.90;79.40
21489;DHT22;10906;45.194;5.684;2022-07-23T08:51:18;28.00;79.10
21489;DHT22;10906;45.194;5.684;2022-07-23T08:54:03;28.10;78.50
21489;DHT22;10906;45.194;5.684;2022-07-23T08:56:48;28.10;78.10
21489;DHT22;10906;45.194;5.684;2022-07-23T08:59:33;28.40;77.50
21489;DHT22;10906;45.194;5.684;2022-07-23T09:02:17;28.40;76.60
21489;DHT22;10906;45.194;5.684;2022-07-23T09:05:01;28.60;76.70
21489;DHT22;10906;45.194;5.684;2022-07-23T09:11:00;28.60;74.20
21489;DHT22;10906;45.194;5.684;2022-07-23T09:13:51;28.70;74.10
21489;DHT22;10906;45.194;5.684;2022-07-23T09:16:36;28.80;73.60
21489;DHT22;10906;45.194;5.684;2022-07-23T09:19:27;29.00;73.40
21489;DHT22;10906;45.194;5.684;2022-07-23T09:22:23;29.10;72.70
21489;DHT22;10906;45.194;5.684;2022-07-23T09:27:56;29.40;72.40
21489;DHT22;10906;45.194;5.684;2022-07-23T09:30:41;29.40;71.30
21489;DHT22;10906;45.194;5.684;2022-07-23T09:33:32;29.50;70.70
21489;DHT22;10906;45.194;5.684;2022-07-23T09:36:28;29.70;70.60
21489;DHT22;10906;45.194;5.684;2022-07-23T09:39:14;29.60;69.90
21489;DHT22;10906;45.194;5.684;2022-07-23T09:42:22;29.70;70.10
21489;DHT22;10906;45.194;5.684;2022-07-23T09:45:10;29.90;69.80
21489;DHT22;10906;45.194;5.684;2022-07-23T09:48:14;30.00;69.00
21489;DHT22;10906;45.194;5.684;2022-07-23T09:51:02;30.00;68.60
21489;DHT22;10906;45.194;5.684;2022-07-23T09:53:47;29.80;68.30
21489;DHT22;10906;45.194;5.684;2022-07-23T09:56:34;29.80;68.50
21489;DHT22;10906;45.194;5.684;2022-07-23T09:59:24;29.70;68.10
21489;DHT22;10906;45.194;5.684;2022-07-23T10:02:11;29.60;68.10
21489;DHT22;10906;45.194;5.684;2022-07-23T10:04:56;29.70;68.10
21489;DHT22;10906;45.194;5.684;2022-07-23T10:31:52;30.80;63.90
21489;DHT22;10906;45.194;5.684;2022-07-23T10:37:45;30.40;63.00
21489;DHT22;10906;45.194;5.684;2022-07-23T10:40:31;30.10;63.60
21489;DHT22;10906;45.194;5.684;2022-07-23T10:43:16;30.10;63.70
21489;DHT22;10906;45.194;5.684;2022-07-23T10:46:24;30.10;64.10
21489;DHT22;10906;45.194;5.684;2022-07-23T10:49:31;30.30;63.10
21489;DHT22;10906;45.194;5.684;2022-07-23T10:52:22;30.40;63.50
21489;DHT22;10906;45.194;5.684;2022-07-23T10:57:54;30.60;62.40
21489;DHT22;10906;45.194;5.684;2022-07-23T11:00:39;30.50;61.90
21489;DHT22;10906;45.194;5.684;2022-07-23T11:03:34;30.40;62.00
21489;DHT22;10906;45.194;5.684;2022-07-23T11:06:21;30.20;62.10
21489;DHT22;10906;45.194;5.684;2022-07-23T11:09:25;30.10;62.90
21489;DHT22;10906;45.194;5.684;2022-07-23T11:15:10;30.50;63.50
21489;DHT22;10906;45.194;5.684;2022-07-23T11:20:40;30.80;61.90
21489;DHT22;10906;45.194;5.684;2022-07-23T11:26:42;30.90;61.10
21489;DHT22;10906;45.194;5.684;2022-07-23T11:32:28;31.40;61.30
21489;DHT22;10906;45.194;5.684;2022-07-23T11:35:22;31.30;59.60
21489;DHT22;10906;45.194;5.684;2022-07-23T11:38:09;31.10;60.20
21489;DHT22;10906;45.194;5.684;2022-07-23T11:40:56;31.10;60.70
21489;DHT22;10906;45.194;5.684;2022-07-23T11:43:42;31.10;60.40
21489;DHT22;10906;45.194;5.684;2022-07-23T11:46:26;31.00;60.10
21489;DHT22;10906;45.194;5.684;2022-07-23T11:49:11;31.00;60.50
21489;DHT22;10906;45.194;5.684;2022-07-23T11:52:08;30.90;60.50
21489;DHT22;10906;45.194;5.684;2022-07-23T11:57:40;30.70;60.80
21489;DHT22;10906;45.194;5.684;2022-07-23T12:00:27;30.90;60.80
21489;DHT22;10906;45.194;5.684;2022-07-23T12:03:12;31.10;60.30
21489;DHT22;10906;45.194;5.684;2022-07-23T12:05:57;31.30;60.00
21489;DHT22;10906;45.194;5.684;2022-07-23T12:08:42;31.30;59.60
21489;DHT22;10906;45.194;5.684;2022-07-23T12:11:26;31.40;59.40
21489;DHT22;10906;45.194;5.684;2022-07-23T12:14:11;31.50;59.30
21489;DHT22;10906;45.194;5.684;2022-07-23T12:17:10;31.50;59.20
21489;DHT22;10906;45.194;5.684;2022-07-23T12:19:58;31.50;59.20
21489;DHT22;10906;45.194;5.684;2022-07-23T12:22:48;31.40;59.40
21489;DHT22;10906;45.194;5.684;2022-07-23T12:25:36;31.50;59.10
21489;DHT22;10906;45.194;5.684;2022-07-23T12:28:29;31.60;59.10
21489;DHT22;10906;45.194;5.684;2022-07-23T12:31:13;31.80;59.30
21489;DHT22;10906;45.194;5.684;2022-07-23T12:33:58;32.10;59.20
21489;DHT22;10906;45.194;5.684;2022-07-23T12:36:43;32.20;58.40
21489;DHT22;10906;45.194;5.684;2022-07-23T12:39:32;32.20;58.40
21489;DHT22;10906;45.194;5.684;2022-07-23T12:42:16;32.30;58.40
21489;DHT22;10906;45.194;5.684;2022-07-23T12:45:07;32.30;58.00
21489;DHT22;10906;45.194;5.684;2022-07-23T12:47:57;32.20;57.70
21489;DHT22;10906;45.194;5.684;2022-07-23T12:51:08;32.30;57.80
21489;DHT22;10906;45.194;5.684;2022-07-23T12:54:12;32.50;57.70
21489;DHT22;10906;45.194;5.684;2022-07-23T12:56:57;32.90;57.20
21489;DHT22;10906;45.194;5.684;2022-07-23T12:59:41;33.20;56.60
21489;DHT22;10906;45.194;5.684;2022-07-23T13:02:25;33.50;56.40
21489;DHT22;10906;45.194;5.684;2022-07-23T13:05:09;33.70;56.00
21489;DHT22;10906;45.194;5.684;2022-07-23T13:07:54;33.90;55.60
21489;DHT22;10906;45.194;5.684;2022-07-23T13:10:38;34.00;55.00
21489;DHT22;10906;45.194;5.684;2022-07-23T13:13:25;33.80;55.10
21489;DHT22;10906;45.194;5.684;2022-07-23T13:16:09;33.80;55.40
21489;DHT22;10906;45.194;5.684;2022-07-23T13:18:54;34.00;55.10
21489;DHT22;10906;45.194;5.684;2022-07-23T13:21:40;34.10;55.00
21489;DHT22;10906;45.194;5.684;2022-07-23T13:24:25;34.20;54.90
21489;DHT22;10906;45.194;5.684;2022-07-23T13:27:10;34.30;54.70
21489;DHT22;10906;45.194;5.684;2022-07-23T13:29:54;34.20;54.80
21489;DHT22;10906;45.194;5.684;2022-07-23T13:32:38;34.30;54.40
21489;DHT22;10906;45.194;5.684;2022-07-23T13:35:23;34.20;54.50
21489;DHT22;10906;45.194;5.684;2022-07-23T13:38:07;33.80;54.60
21489;DHT22;10906;45.194;5.684;2022-07-23T13:40:52;33.80;55.00
21489;DHT22;10906;45.194;5.684;2022-07-23T13:43:36;33.90;54.70
21489;DHT22;10906;45.194;5.684;2022-07-23T13:46:21;33.90;54.70
21489;DHT22;10906;45.194;5.684;2022-07-23T13:49:05;33.80;54.50
21489;DHT22;10906;45.194;5.684;2022-07-23T13:51:49;33.70;54.60
21489;DHT22;10906;45.194;5.684;2022-07-23T13:54:34;33.80;54.60
21489;DHT22;10906;45.194;5.684;2022-07-23T13:57:19;34.00;54.60
21489;DHT22;10906;45.194;5.684;2022-07-23T14:00:05;34.00;54.30
21489;DHT22;10906;45.194;5.684;2022-07-23T14:02:51;34.20;54.50
21489;DHT22;10906;45.194;5.684;2022-07-23T14:05:35;34.20;54.20
21489;DHT22;10906;45.194;5.684;2022-07-23T14:08:20;33.90;54.20
21489;DHT22;10906;45.194;5.684;2022-07-23T14:11:04;33.60;54.90
21489;DHT22;10906;45.194;5.684;2022-07-23T14:13:49;33.60;54.70
21489;DHT22;10906;45.194;5.684;2022-07-23T14:16:33;33.70;54.90
21489;DHT22;10906;45.194;5.684;2022-07-23T14:19:17;33.80;54.40
21489;DHT22;10906;45.194;5.684;2022-07-23T14:22:02;33.60;54.40
21489;DHT22;10906;45.194;5.684;2022-07-23T14:24:47;33.50;54.80
21489;DHT22;10906;45.194;5.684;2022-07-23T14:27:31;33.70;54.80
21489;DHT22;10906;45.194;5.684;2022-07-23T14:30:15;33.90;54.60
21489;DHT22;10906;45.194;5.684;2022-07-23T14:33:00;33.90;54.20
21489;DHT22;10906;45.194;5.684;2022-07-23T14:35:44;33.80;54.30
21489;DHT22;10906;45.194;5.684;2022-07-23T14:38:28;33.60;54.30
21489;DHT22;10906;45.194;5.684;2022-07-23T14:41:14;33.20;54.80
21489;DHT22;10906;45.194;5.684;2022-07-23T14:43:58;32.90;55.30
21489;DHT22;10906;45.194;5.684;2022-07-23T14:46:42;32.70;55.90
21489;DHT22;10906;45.194;5.684;2022-07-23T14:49:27;32.50;55.90
21489;DHT22;10906;45.194;5.684;2022-07-23T14:52:11;32.50;56.40
21489;DHT22;10906;45.194;5.684;2022-07-23T14:54:55;32.60;56.50
21489;DHT22;10906;45.194;5.684;2022-07-23T14:57:39;32.60;56.30
21489;DHT22;10906;45.194;5.684;2022-07-23T15:00:24;32.60;56.30
21489;DHT22;10906;45.194;5.684;2022-07-23T15:03:08;32.60;56.40
21489;DHT22;10906;45.194;5.684;2022-07-23T15:05:53;32.50;56.30
21489;DHT22;10906;45.194;5.684;2022-07-23T15:08:37;32.40;56.30
21489;DHT22;10906;45.194;5.684;2022-07-23T15:11:21;32.20;56.40
21489;DHT22;10906;45.194;5.684;2022-07-23T15:14:07;32.10;56.70
21489;DHT22;10906;45.194;5.684;2022-07-23T15:16:51;32.00;56.80
21489;DHT22;10906;45.194;5.684;2022-07-23T15:19:36;31.90;56.70
21489;DHT22;10906;45.194;5.684;2022-07-23T15:22:21;31.80;57.10
21489;DHT22;10906;45.194;5.684;2022-07-23T15:25:05;31.80;56.90
21489;DHT22;10906;45.194;5.684;2022-07-23T15:27:50;31.90;57.00
21489;DHT22;10906;45.194;5.684;2022-07-23T15:30:34;32.10;57.70
21489;DHT22;10906;45.194;5.684;2022-07-23T15:33:19;32.40;56.40
21489;DHT22;10906;45.194;5.684;2022-07-23T15:36:04;32.60;56.30
21489;DHT22;10906;45.194;5.684;2022-07-23T15:38:48;32.80;55.60
21489;DHT22;10906;45.194;5.684;2022-07-23T15:41:33;33.00;55.80
21489;DHT22;10906;45.194;5.684;2022-07-23T15:44:17;33.20;55.50
21489;DHT22;10906;45.194;5.684;2022-07-23T15:47:02;33.10;55.30
21489;DHT22;10906;45.194;5.684;2022-07-23T15:49:47;33.10;55.30
21489;DHT22;10906;45.194;5.684;2022-07-23T15:52:31;33.20;55.00
21489;DHT22;10906;45.194;5.684;2022-07-23T15:55:15;33.30;54.60
21489;DHT22;10906;45.194;5.684;2022-07-23T15:58:00;33.30;54.30
21489;DHT22;10906;45.194;5.684;2022-07-23T16:00:44;33.50;54.50
21489;DHT22;10906;45.194;5.684;2022-07-23T16:03:28;33.50;54.20
21489;DHT22;10906;45.194;5.684;2022-07-23T16:06:12;33.60;53.90
21489;DHT22;10906;45.194;5.684;2022-07-23T16:08:57;33.50;53.90
21489;DHT22;10906;45.194;5.684;2022-07-23T16:11:42;33.50;53.60
21489;DHT22;10906;45.194;5.684;2022-07-23T16:14:26;33.40;53.40
21489;DHT22;10906;45.194;5.684;2022-07-23T16:17:11;33.40;53.40
21489;DHT22;10906;45.194;5.684;2022-07-23T16:19:55;33.20;53.40
21489;DHT22;10906;45.194;5.684;2022-07-23T16:22:39;33.20;53.50
21489;DHT22;10906;45.194;5.684;2022-07-23T16:25:24;33.20;53.40
21489;DHT22;10906;45.194;5.684;2022-07-23T16:28:08;33.10;53.40
21489;DHT22;10906;45.194;5.684;2022-07-23T16:30:53;33.10;53.30
21489;DHT22;10906;45.194;5.684;2022-07-23T16:33:37;33.10;53.50
21489;DHT22;10906;45.194;5.684;2022-07-23T16:36:22;33.00;53.40
21489;DHT22;10906;45.194;5.684;2022-07-23T16:39:06;33.00;53.80
21489;DHT22;10906;45.194;5.684;2022-07-23T16:41:51;33.00;53.60
21489;DHT22;10906;45.194;5.684;2022-07-23T16:44:36;32.90;53.70
21489;DHT22;10906;45.194;5.684;2022-07-23T16:47:20;32.80;54.00
21489;DHT22;10906;45.194;5.684;2022-07-23T16:50:06;32.60;54.40
21489;DHT22;10906;45.194;5.684;2022-07-23T16:52:51;32.40;54.70
21489;DHT22;10906;45.194;5.684;2022-07-23T16:55:35;32.20;54.90
21489;DHT22;10906;45.194;5.684;2022-07-23T16:58:20;32.00;55.30
21489;DHT22;10906;45.194;5.684;2022-07-23T17:01:04;31.80;55.70
21489;DHT22;10906;45.194;5.684;2022-07-23T17:03:49;31.70;56.00
21489;DHT22;10906;45.194;5.684;2022-07-23T17:06:34;31.60;56.30
21489;DHT22;10906;45.194;5.684;2022-07-23T17:09:18;31.50;56.30
21489;DHT22;10906;45.194;5.684;2022-07-23T17:12:04;31.30;56.40
21489;DHT22;10906;45.194;5.684;2022-07-23T17:14:48;31.20;56.60
21489;DHT22;10906;45.194;5.684;2022-07-23T17:17:34;31.10;56.90
21489;DHT22;10906;45.194;5.684;2022-07-23T17:20:18;31.10;56.90
21489;DHT22;10906;45.194;5.684;2022-07-23T17:23:02;31.00;57.00
21489;DHT22;10906;45.194;5.684;2022-07-23T17:25:47;30.90;57.10
21489;DHT22;10906;45.194;5.684;2022-07-23T17:28:31;30.80;57.00
21489;DHT22;10906;45.194;5.684;2022-07-23T17:31:16;30.70;57.10
21489;DHT22;10906;45.194;5.684;2022-07-23T17:34:01;30.60;57.30
21489;DHT22;10906;45.194;5.684;2022-07-23T17:36:45;30.50;57.50
21489;DHT22;10906;45.194;5.684;2022-07-23T17:39:30;30.40;57.70
21489;DHT22;10906;45.194;5.684;2022-07-23T17:42:14;30.30;57.80
21489;DHT22;10906;45.194;5.684;2022-07-23T17:44:58;30.20;57.90
21489;DHT22;10906;45.194;5.684;2022-07-23T17:47:44;30.10;58.00
21489;DHT22;10906;45.194;5.684;2022-07-23T17:50:30;30.00;58.00
21489;DHT22;10906;45.194;5.684;2022-07-23T17:53:15;30.00;58.10
21489;DHT22;10906;45.194;5.684;2022-07-23T17:55:59;29.90;58.20
21489;DHT22;10906;45.194;5.684;2022-07-23T17:58:45;29.90;58.40
21489;DHT22;10906;45.194;5.684;2022-07-23T18:01:29;29.80;58.30
21489;DHT22;10906;45.194;5.684;2022-07-23T18:04:14;29.70;58.40
21489;DHT22;10906;45.194;5.684;2022-07-23T18:06:59;29.70;58.50
21489;DHT22;10906;45.194;5.684;2022-07-23T18:09:43;29.60;58.50
21489;DHT22;10906;45.194;5.684;2022-07-23T18:12:28;29.60;58.60
21489;DHT22;10906;45.194;5.684;2022-07-23T18:15:13;29.60;58.70
21489;DHT22;10906;45.194;5.684;2022-07-23T18:17:58;29.50;58.70
21489;DHT22;10906;45.194;5.684;2022-07-23T18:20:43;29.40;58.70
21489;DHT22;10906;45.194;5.684;2022-07-23T18:23:27;29.30;58.50
21489;DHT22;10906;45.194;5.684;2022-07-23T18:26:12;29.30;58.70
21489;DHT22;10906;45.194;5.684;2022-07-23T18:28:56;29.20;58.60
21489;DHT22;10906;45.194;5.684;2022-07-23T18:31:40;29.20;58.60
21489;DHT22;10906;45.194;5.684;2022-07-23T18:34:25;29.20;58.60
21489;DHT22;10906;45.194;5.684;2022-07-23T18:37:09;29.10;58.70
21489;DHT22;10906;45.194;5.684;2022-07-23T18:39:54;29.10;58.70
21489;DHT22;10906;45.194;5.684;2022-07-23T18:42:38;29.00;58.70
21489;DHT22;10906;45.194;5.684;2022-07-23T18:45:23;28.90;58.70
21489;DHT22;10906;45.194;5.684;2022-07-23T18:48:07;28.90;58.70
21489;DHT22;10906;45.194;5.684;2022-07-23T18:50:52;28.80;58.80
21489;DHT22;10906;45.194;5.684;2022-07-23T18:53:37;28.70;58.90
21489;DHT22;10906;45.194;5.684;2022-07-23T18:56:21;28.70;58.90
21489;DHT22;10906;45.194;5.684;2022-07-23T18:59:06;28.70;59.10
21489;DHT22;10906;45.194;5.684;2022-07-23T19:01:50;28.70;59.10
21489;DHT22;10906;45.194;5.684;2022-07-23T19:04:35;28.60;59.20
21489;DHT22;10906;45.194;5.684;2022-07-23T19:07:19;28.50;59.30
21489;DHT22;10906;45.194;5.684;2022-07-23T19:10:06;28.50;59.30
21489;DHT22;10906;45.194;5.684;2022-07-23T19:12:50;28.40;59.40
21489;DHT22;10906;45.194;5.684;2022-07-23T19:15:35;28.30;59.40
21489;DHT22;10906;45.194;5.684;2022-07-23T19:18:19;28.30;59.40
21489;DHT22;10906;45.194;5.684;2022-07-23T19:21:03;28.20;59.50
21489;DHT22;10906;45.194;5.684;2022-07-23T19:23:49;28.20;59.50
21489;DHT22;10906;45.194;5.684;2022-07-23T19:26:33;28.20;59.50
21489;DHT22;10906;45.194;5.684;2022-07-23T19:29:18;28.10;59.50
21489;DHT22;10906;45.194;5.684;2022-07-23T19:32:04;28.10;59.50
21489;DHT22;10906;45.194;5.684;2022-07-23T19:34:48;28.00;59.50
21489;DHT22;10906;45.194;5.684;2022-07-23T19:37:34;28.00;59.60
21489;DHT22;10906;45.194;5.684;2022-07-23T19:40:19;28.00;59.80
21489;DHT22;10906;45.194;5.684;2022-07-23T19:43:03;27.90;59.80
21489;DHT22;10906;45.194;5.684;2022-07-23T19:45:47;27.90;60.00
21489;DHT22;10906;45.194;5.684;2022-07-23T19:48:31;27.90;60.10
21489;DHT22;10906;45.194;5.684;2022-07-23T19:51:17;27.80;60.10
21489;DHT22;10906;45.194;5.684;2022-07-23T19:54:01;27.80;60.30
21489;DHT22;10906;45.194;5.684;2022-07-23T19:56:46;27.80;60.40
21489;DHT22;10906;45.194;5.684;2022-07-23T19:59:31;27.70;61.40
21489;DHT22;10906;45.194;5.684;2022-07-23T20:02:16;27.70;60.60
21489;DHT22;10906;45.194;5.684;2022-07-23T20:05:00;27.70;60.60
21489;DHT22;10906;45.194;5.684;2022-07-23T20:07:45;27.70;60.70
21489;DHT22;10906;45.194;5.684;2022-07-23T20:10:29;27.70;60.90
21489;DHT22;10906;45.194;5.684;2022-07-23T20:13:14;27.60;60.90
21489;DHT22;10906;45.194;5.684;2022-07-23T20:16:00;27.60;61.10
21489;DHT22;10906;45.194;5.684;2022-07-23T20:18:45;27.60;61.30
21489;DHT22;10906;45.194;5.684;2022-07-23T20:21:29;27.60;61.30
21489;DHT22;10906;45.194;5.684;2022-07-23T20:24:14;27.60;61.40
21489;DHT22;10906;45.194;5.684;2022-07-23T20:27:01;27.50;61.60
21489;DHT22;10906;45.194;5.684;2022-07-23T20:29:47;27.50;61.60
21489;DHT22;10906;45.194;5.684;2022-07-23T20:32:32;27.50;61.70
21489;DHT22;10906;45.194;5.684;2022-07-23T20:35:17;27.40;62.30
21489;DHT22;10906;45.194;5.684;2022-07-23T20:38:02;27.40;62.50
21489;DHT22;10906;45.194;5.684;2022-07-23T20:40:46;27.30;62.40
21489;DHT22;10906;45.194;5.684;2022-07-23T20:43:31;27.20;63.40
21489;DHT22;10906;45.194;5.684;2022-07-23T20:46:15;27.10;62.70
21489;DHT22;10906;45.194;5.684;2022-07-23T20:49:02;27.10;63.00
21489;DHT22;10906;45.194;5.684;2022-07-23T20:51:46;27.00;63.20
21489;DHT22;10906;45.194;5.684;2022-07-23T20:54:31;27.00;63.10
21489;DHT22;10906;45.194;5.684;2022-07-23T20:57:16;27.00;63.40
21489;DHT22;10906;45.194;5.684;2022-07-23T21:00:00;26.90;63.50
21489;DHT22;10906;45.194;5.684;2022-07-23T21:02:45;26.90;63.50
21489;DHT22;10906;45.194;5.684;2022-07-23T21:05:29;26.90;63.90
21489;DHT22;10906;45.194;5.684;2022-07-23T21:08:14;26.90;63.60
21489;DHT22;10906;45.194;5.684;2022-07-23T21:10:59;26.90;63.70
21489;DHT22;10906;45.194;5.684;2022-07-23T21:13:43;26.80;63.70
21489;DHT22;10906;45.194;5.684;2022-07-23T21:16:28;26.80;63.80
21489;DHT22;10906;45.194;5.684;2022-07-23T21:19:13;26.80;64.10
21489;DHT22;10906;45.194;5.684;2022-07-23T21:21:58;26.70;63.80
21489;DHT22;10906;45.194;5.684;2022-07-23T21:24:42;26.70;65.00
21489;DHT22;10906;45.194;5.684;2022-07-23T21:27:26;26.60;64.20
21489;DHT22;10906;45.194;5.684;2022-07-23T21:30:11;26.60;64.20
21489;DHT22;10906;45.194;5.684;2022-07-23T21:32:56;26.60;64.50
21489;DHT22;10906;45.194;5.684;2022-07-23T21:35:40;26.50;65.00
21489;DHT22;10906;45.194;5.684;2022-07-23T21:38:25;26.40;64.80
21489;DHT22;10906;45.194;5.684;2022-07-23T21:41:09;26.40;65.10
21489;DHT22;10906;45.194;5.684;2022-07-23T21:43:56;26.40;65.30
21489;DHT22;10906;45.194;5.684;2022-07-23T21:46:40;26.40;65.30
21489;DHT22;10906;45.194;5.684;2022-07-23T21:49:25;26.30;65.40
21489;DHT22;10906;45.194;5.684;2022-07-23T21:52:09;26.30;65.30
21489;DHT22;10906;45.194;5.684;2022-07-23T21:54:54;26.20;65.80
21489;DHT22;10906;45.194;5.684;2022-07-23T21:57:38;26.10;65.80
